sensor_id;sensor_type;location;lat;lon;timestamp;temperature;humidity
20654;DHT22;21083;50.898;4.902;2022-12-10T00:02:15;1.10;99.90
20654;DHT22;21083;50.898;4.902;2022-12-10T00:04:42;1.10;99.90
20654;DHT22;21083;50.898;4.902;2022-12-10T00:07:09;1.10;99.90
20654;DHT22;21083;50.898;4.902;2022-12-10T00:09:36;1.00;99.90
20654;DHT22;21083;50.898;4.902;2022-12-10T00:12:03;1.00;99.90
20654;DHT22;21083;50.898;4.902;2022-12-10T00:14:30;0.90;99.90
20654;DHT22;21083;50.898;4.902;2022-12-10T00:16:57;1.00;99.90
20654;DHT22;21083;50.898;4.902;2022-12-10T00:19:25;0.80;99.90
20654;DHT22;21083;50.898;4.902;2022-12-10T00:21:52;0.70;99.90
20654;DHT22;21083;50.898;4.902;2022-12-10T00:24:19;0.80;99.90
20654;DHT22;21083;50.898;4.902;2022-12-10T00:26:46;0.80;99.90
20654;DHT22;21083;50.898;4.902;2022-12-10T00:29:13;0.50;99.90
20654;DHT22;21083;50.898;4.902;2022-12-10T00:31:40;0.40;99.90
20654;DHT22;21083;50.898;4.902;2022-12-10T00:34:08;0.40;99.90
20654;DHT22;21083;50.898;4.902;2022-12-10T00:36:40;0.30;99.90
20654;DHT22;21083;50.898;4.902;2022-12-10T00:39:08;0.30;99.90
20654;DHT22;21083;50.898;4.902;2022-12-10T00:41:35;0.50;99.90
20654;DHT22;21083;50.898;4.902;2022-12-10T00:44:02;0.60;99.90
20654;DHT22;21083;50.898;4.902;2022-12-10T00:46:29;0.70;99.90
20654;DHT22;21083;50.898;4.902;2022-12-10T00:48:57;0.90;99.90
20654;DHT22;21083;50.898;4.902;2022-12-10T00:51:26;0.90;99.90
20654;DHT22;21083;50.898;4.902;2022-12-10T00:53:56;0.80;99.90
20654;DHT22;21083;50.898;4.902;2022-12-10T00:56:26;0.60;99.90
20654;DHT22;21083;50.898;4.902;2022-12-10T00:58:53;0.50;99.90
20654;DHT22;21083;50.898;4.902;2022-12-10T01:01:22;0.50;99.90
20654;DHT22;21083;50.898;4.902;2022-12-10T01:03:50;0.40;99.90
20654;DHT22;21083;50.898;4.902;2022-12-10T01:06:20;0.30;99.90
20654;DHT22;21083;50.898;4.902;2022-12-10T01:08:47;0.40;99.90
20654;DHT22;21083;50.898;4.902;2022-12-10T01:11:17;0.40;99.90
20654;DHT22;21083;50.898;4.902;2022-12-10T01:13:45;0.40;99.90
20654;DHT22;21083;50.898;4.902;2022-12-10T01:16:14;0.40;99.90
20654;DHT22;21083;50.898;4.902;2022-12-10T01:18:41;0.60;99.90
20654;DHT22;21083;50.898;4.902;2022-12-10T01:21:10;0.70;99.90
20654;DHT22;21083;50.898;4.902;2022-12-10T01:23:40;0.60;99.90
20654;DHT22;21083;50.898;4.902;2022-12-10T01:26:09;0.40;99.90
20654;DHT22;21083;50.898;4.902;2022-12-10T01:28:39;0.50;99.90
20654;DHT22;21083;50.898;4.902;2022-12-10T01:31:08;0.40;99.90
20654;DHT22;21083;50.898;4.902;2022-12-10T01:33:35;0.00;99.90
20654;DHT22;21083;50.898;4.902;2022-12-10T01:36:04;0.10;99.90
20654;DHT22;21083;50.898;4.902;2022-12-10T01:38:31;0.00;99.90
20654;DHT22;21083;50.898;4.902;2022-12-10T01:40:59;0.00;99.90
20654;DHT22;21083;50.898;4.902;2022-12-10T01:43:26;0.20;99.90
20654;DHT22;21083;50.898;4.902;2022-12-10T01:45:54;0.10;99.90
20654;DHT22;21083;50.898;4.902;2022-12-10T01:48:21;0.10;99.90
20654;DHT22;21083;50.898;4.902;2022-12-10T01:50:48;0.00;99.90
20654;DHT22;21083;50.898;4.902;2022-12-10T01:53:15;0.00;99.90
20654;DHT22;21083;50.898;4.902;2022-12-10T01:55:46;0.00;99.90
20654;DHT22;21083;50.898;4.902;2022-12-10T01:58:15;-0.10;99.90
20654;DHT22;21083;50.898;4.902;2022-12-10T02:00:54;0.10;99.90
20654;DHT22;21083;50.898;4.902;2022-12-10T02:03:36;0.20;99.90
20654;DHT22;21083;50.898;4.902;2022-12-10T02:06:13;0.40;99.90
20654;DHT22;21083;50.898;4.902;2022-12-10T02:09:00;0.50;99.90
20654;DHT22;21083;50.898;4.902;2022-12-10T02:11:31;0.30;99.90
20654;DHT22;21083;50.898;4.902;2022-12-10T02:14:03;0.20;99.90
20654;DHT22;21083;50.898;4.902;2022-12-10T02:16:34;0.20;99.90
20654;DHT22;21083;50.898;4.902;2022-12-10T02:19:09;0.20;99.90
20654;DHT22;21083;50.898;4.902;2022-12-10T02:21:41;0.30;99.90
20654;DHT22;21083;50.898;4.902;2022-12-10T02:24:23;0.20;99.90
20654;DHT22;21083;50.898;4.902;2022-12-10T02:26:56;0.20;99.90
20654;DHT22;21083;50.898;4.902;2022-12-10T02:29:27;0.20;99.90
20654;DHT22;21083;50.898;4.902;2022-12-10T02:31:59;0.20;99.90
20654;DHT22;21083;50.898;4.902;2022-12-10T02:34:28;0.10;99.90
20654;DHT22;21083;50.898;4.902;2022-12-10T02:36:58;0.10;99.90
20654;DHT22;21083;50.898;4.902;2022-12-10T02:39:31;0.20;99.90
20654;DHT22;21083;50.898;4.902;2022-12-10T02:42:00;0.30;99.90
20654;DHT22;21083;50.898;4.902;2022-12-10T02:44:31;0.30;99.90
20654;DHT22;21083;50.898;4.902;2022-12-10T02:47:00;0.20;99.90
20654;DHT22;21083;50.898;4.902;2022-12-10T02:49:30;0.10;99.90
20654;DHT22;21083;50.898;4.902;2022-12-10T02:51:57;0.20;99.90
20654;DHT22;21083;50.898;4.902;2022-12-10T02:54:39;0.20;99.90
20654;DHT22;21083;50.898;4.902;2022-12-10T02:57:21;0.20;99.90
20654;DHT22;21083;50.898;4.902;2022-12-10T03:00:08;0.30;99.90
20654;DHT22;21083;50.898;4.902;2022-12-10T03:02:56;0.30;99.90
20654;DHT22;21083;50.898;4.902;2022-12-10T03:05:33;0.40;99.90
20654;DHT22;21083;50.898;4.902;2022-12-10T03:08:06;0.10;99.90
20654;DHT22;21083;50.898;4.902;2022-12-10T03:10:41;0.00;99.90
20654;DHT22;21083;50.898;4.902;2022-12-10T03:13:12;-0.10;99.90
20654;DHT22;21083;50.898;4.902;2022-12-10T03:15:42;-0.20;99.90
20654;DHT22;21083;50.898;4.902;2022-12-10T03:18:11;-0.40;99.90
20654;DHT22;21083;50.898;4.902;2022-12-10T03:20:41;-0.60;99.90
20654;DHT22;21083;50.898;4.902;2022-12-10T03:23:13;-0.40;99.90
20654;DHT22;21083;50.898;4.902;2022-12-10T03:25:42;-0.20;99.90
20654;DHT22;21083;50.898;4.902;2022-12-10T03:28:10;-0.10;99.90
20654;DHT22;21083;50.898;4.902;2022-12-10T03:30:38;0.00;99.90
20654;DHT22;21083;50.898;4.902;2022-12-10T03:33:07;0.00;99.90
20654;DHT22;21083;50.898;4.902;2022-12-10T03:35:35;0.00;99.90
20654;DHT22;21083;50.898;4.902;2022-12-10T03:38:02;0.00;99.90
20654;DHT22;21083;50.898;4.902;2022-12-10T03:40:29;0.10;99.90
20654;DHT22;21083;50.898;4.902;2022-12-10T03:42:56;0.20;99.90
20654;DHT22;21083;50.898;4.902;2022-12-10T03:45:23;0.00;99.90
20654;DHT22;21083;50.898;4.902;2022-12-10T03:47:50;0.00;99.90
20654;DHT22;21083;50.898;4.902;2022-12-10T03:50:18;-0.20;99.90
20654;DHT22;21083;50.898;4.902;2022-12-10T03:52:45;-0.20;99.90
20654;DHT22;21083;50.898;4.902;2022-12-10T03:55:12;-0.20;99.90
20654;DHT22;21083;50.898;4.902;2022-12-10T03:57:38;-0.20;99.90
20654;DHT22;21083;50.898;4.902;2022-12-10T04:00:07;-0.10;99.90
20654;DHT22;21083;50.898;4.902;2022-12-10T04:02:34;0.00;99.90
20654;DHT22;21083;50.898;4.902;2022-12-10T04:05:01;0.10;99.90
20654;DHT22;21083;50.898;4.902;2022-12-10T04:07:29;0.20;99.90
20654;DHT22;21083;50.898;4.902;2022-12-10T04:09:56;0.00;99.90
20654;DHT22;21083;50.898;4.902;2022-12-10T04:12:23;-0.20;99.90
20654;DHT22;21083;50.898;4.902;2022-12-10T04:14:50;-0.10;99.90
20654;DHT22;21083;50.898;4.902;2022-12-10T04:17:34;-0.10;99.90
20654;DHT22;21083;50.898;4.902;2022-12-10T04:20:01;-0.10;99.90
20654;DHT22;21083;50.898;4.902;2022-12-10T04:22:29;0.00;99.90
20654;DHT22;21083;50.898;4.902;2022-12-10T04:25:14;0.10;99.90
20654;DHT22;21083;50.898;4.902;2022-12-10T04:27:58;0.20;99.90
20654;DHT22;21083;50.898;4.902;2022-12-10T04:30:25;0.20;99.90
20654;DHT22;21083;50.898;4.902;2022-12-10T04:32:52;0.30;99.90
20654;DHT22;21083;50.898;4.902;2022-12-10T04:35:19;0.30;99.90
20654;DHT22;21083;50.898;4.902;2022-12-10T04:37:47;0.10;99.90
20654;DHT22;21083;50.898;4.902;2022-12-10T04:40:14;0.00;99.90
20654;DHT22;21083;50.898;4.902;2022-12-10T04:42:41;0.00;99.90
20654;DHT22;21083;50.898;4.902;2022-12-10T04:45:09;0.10;99.90
20654;DHT22;21083;50.898;4.902;2022-12-10T04:47:36;0.00;99.90
20654;DHT22;21083;50.898;4.902;2022-12-10T04:50:03;0.10;99.90
20654;DHT22;21083;50.898;4.902;2022-12-10T04:52:30;0.00;99.90
20654;DHT22;21083;50.898;4.902;2022-12-10T04:54:58;0.10;99.90
20654;DHT22;21083;50.898;4.902;2022-12-10T04:57:25;0.00;99.90
20654;DHT22;21083;50.898;4.902;2022-12-10T04:59:52;-0.10;99.90
20654;DHT22;21083;50.898;4.902;2022-12-10T05:02:19;0.00;99.90
20654;DHT22;21083;50.898;4.902;2022-12-10T05:04:48;0.00;99.90
20654;DHT22;21083;50.898;4.902;2022-12-10T05:07:15;-0.20;99.90
20654;DHT22;21083;50.898;4.902;2022-12-10T05:09:42;-0.10;99.90
20654;DHT22;21083;50.898;4.902;2022-12-10T05:12:10;-0.10;99.90
20654;DHT22;21083;50.898;4.902;2022-12-10T05:14:37;-0.10;99.90
20654;DHT22;21083;50.898;4.902;2022-12-10T05:17:04;0.00;99.90
20654;DHT22;21083;50.898;4.902;2022-12-10T05:19:31;0.00;99.90
20654;DHT22;21083;50.898;4.902;2022-12-10T05:21:58;-0.30;99.90
20654;DHT22;21083;50.898;4.902;2022-12-10T05:24:42;-0.10;99.90
20654;DHT22;21083;50.898;4.902;2022-12-10T05:27:10;-0.20;99.90
20654;DHT22;21083;50.898;4.902;2022-12-10T05:29:37;-0.30;99.90
20654;DHT22;21083;50.898;4.902;2022-12-10T05:32:04;-0.30;99.90
20654;DHT22;21083;50.898;4.902;2022-12-10T05:34:31;-0.20;99.90
20654;DHT22;21083;50.898;4.902;2022-12-10T05:36:58;-0.20;99.90
20654;DHT22;21083;50.898;4.902;2022-12-10T05:39:25;-0.20;99.90
20654;DHT22;21083;50.898;4.902;2022-12-10T05:41:52;-0.20;99.90
20654;DHT22;21083;50.898;4.902;2022-12-10T05:44:21;-0.10;99.90
20654;DHT22;21083;50.898;4.902;2022-12-10T05:46:47;-0.10;99.90
20654;DHT22;21083;50.898;4.902;2022-12-10T05:49:14;-0.10;99.90
20654;DHT22;21083;50.898;4.902;2022-12-10T05:51:41;-0.30;99.90
20654;DHT22;21083;50.898;4.902;2022-12-10T05:54:09;-0.40;99.90
20654;DHT22;21083;50.898;4.902;2022-12-10T05:56:36;-0.40;99.90
20654;DHT22;21083;50.898;4.902;2022-12-10T05:59:04;-0.30;99.90
20654;DHT22;21083;50.898;4.902;2022-12-10T06:01:34;-0.10;99.90
20654;DHT22;21083;50.898;4.902;2022-12-10T06:04:02;-0.10;99.90
20654;DHT22;21083;50.898;4.902;2022-12-10T06:06:31;-0.30;99.90
20654;DHT22;21083;50.898;4.902;2022-12-10T06:08:58;-0.40;99.90
20654;DHT22;21083;50.898;4.902;2022-12-10T06:11:26;-0.40;99.90
20654;DHT22;21083;50.898;4.902;2022-12-10T06:13:54;-0.60;99.90
20654;DHT22;21083;50.898;4.902;2022-12-10T06:16:21;-0.50;99.90
20654;DHT22;21083;50.898;4.902;2022-12-10T06:18:50;-0.50;99.90
20654;DHT22;21083;50.898;4.902;2022-12-10T06:21:18;-0.50;99.90
20654;DHT22;21083;50.898;4.902;2022-12-10T06:23:45;-0.40;99.90
20654;DHT22;21083;50.898;4.902;2022-12-10T06:26:14;-0.40;99.90
20654;DHT22;21083;50.898;4.902;2022-12-10T06:28:43;-0.30;99.90
20654;DHT22;21083;50.898;4.902;2022-12-10T06:31:10;-0.10;99.90
20654;DHT22;21083;50.898;4.902;2022-12-10T06:33:37;-0.10;99.90
20654;DHT22;21083;50.898;4.902;2022-12-10T06:36:07;-0.10;99.90
20654;DHT22;21083;50.898;4.902;2022-12-10T06:38:35;-0.20;99.90
20654;DHT22;21083;50.898;4.902;2022-12-10T06:41:04;-0.10;99.90
20654;DHT22;21083;50.898;4.902;2022-12-10T06:43:32;-0.30;99.90
20654;DHT22;21083;50.898;4.902;2022-12-10T06:45:59;-0.30;99.90
20654;DHT22;21083;50.898;4.902;2022-12-10T06:48:30;-0.20;99.90
20654;DHT22;21083;50.898;4.902;2022-12-10T06:50:57;-0.10;99.90
20654;DHT22;21083;50.898;4.902;2022-12-10T06:53:25;-0.10;99.90
20654;DHT22;21083;50.898;4.902;2022-12-10T06:55:52;-0.10;99.90
20654;DHT22;21083;50.898;4.902;2022-12-10T06:58:19;0.10;99.90
20654;DHT22;21083;50.898;4.902;2022-12-10T07:00:46;-0.20;99.90
20654;DHT22;21083;50.898;4.902;2022-12-10T07:03:13;-0.20;99.90
20654;DHT22;21083;50.898;4.902;2022-12-10T07:05:39;-0.20;99.90
20654;DHT22;21083;50.898;4.902;2022-12-10T07:08:06;-0.10;99.90
20654;DHT22;21083;50.898;4.902;2022-12-10T07:10:36;-0.10;99.90
20654;DHT22;21083;50.898;4.902;2022-12-10T07:13:03;-0.20;99.90
20654;DHT22;21083;50.898;4.902;2022-12-10T07:15:31;-0.20;99.90
20654;DHT22;21083;50.898;4.902;2022-12-10T07:17:59;-0.10;99.90
20654;DHT22;21083;50.898;4.902;2022-12-10T07:20:26;0.00;99.90
20654;DHT22;21083;50.898;4.902;2022-12-10T07:22:53;0.10;99.90
20654;DHT22;21083;50.898;4.902;2022-12-10T07:25:19;0.10;99.90
20654;DHT22;21083;50.898;4.902;2022-12-10T07:27:48;0.20;99.90
20654;DHT22;21083;50.898;4.902;2022-12-10T07:30:14;0.30;99.90
20654;DHT22;21083;50.898;4.902;2022-12-10T07:32:41;0.30;99.90
20654;DHT22;21083;50.898;4.902;2022-12-10T07:35:08;0.30;99.90
20654;DHT22;21083;50.898;4.902;2022-12-10T07:37:35;0.30;99.90
20654;DHT22;21083;50.898;4.902;2022-12-10T07:40:02;0.10;99.90
20654;DHT22;21083;50.898;4.902;2022-12-10T07:42:30;0.00;99.90
20654;DHT22;21083;50.898;4.902;2022-12-10T07:44:58;-0.10;99.90
20654;DHT22;21083;50.898;4.902;2022-12-10T07:47:25;-0.20;99.90
20654;DHT22;21083;50.898;4.902;2022-12-10T07:49:52;-0.30;99.90
20654;DHT22;21083;50.898;4.902;2022-12-10T07:52:19;-0.30;99.90
20654;DHT22;21083;50.898;4.902;2022-12-10T07:54:46;-0.20;99.90
20654;DHT22;21083;50.898;4.902;2022-12-10T07:57:13;-0.10;99.90
20654;DHT22;21083;50.898;4.902;2022-12-10T07:59:41;0.00;99.90
20654;DHT22;21083;50.898;4.902;2022-12-10T08:02:09;0.00;99.90
20654;DHT22;21083;50.898;4.902;2022-12-10T08:04:36;0.00;99.90
20654;DHT22;21083;50.898;4.902;2022-12-10T08:07:04;0.00;99.90
20654;DHT22;21083;50.898;4.902;2022-12-10T08:09:31;0.00;99.90
20654;DHT22;21083;50.898;4.902;2022-12-10T08:11:58;-0.10;99.90
20654;DHT22;21083;50.898;4.902;2022-12-10T08:14:24;-0.10;99.90
20654;DHT22;21083;50.898;4.902;2022-12-10T08:16:51;-0.10;99.90
20654;DHT22;21083;50.898;4.902;2022-12-10T08:19:19;-0.10;99.90
20654;DHT22;21083;50.898;4.902;2022-12-10T08:21:46;-0.10;99.90
20654;DHT22;21083;50.898;4.902;2022-12-10T08:24:13;0.10;99.90
20654;DHT22;21083;50.898;4.902;2022-12-10T08:26:40;-0.10;99.90
20654;DHT22;21083;50.898;4.902;2022-12-10T08:29:07;-0.20;99.90
20654;DHT22;21083;50.898;4.902;2022-12-10T08:31:34;-0.30;99.90
20654;DHT22;21083;50.898;4.902;2022-12-10T08:34:01;-0.20;99.90
20654;DHT22;21083;50.898;4.902;2022-12-10T08:36:29;-0.10;99.90
20654;DHT22;21083;50.898;4.902;2022-12-10T08:38:57;-0.10;99.90
20654;DHT22;21083;50.898;4.902;2022-12-10T08:41:24;0.00;99.90
20654;DHT22;21083;50.898;4.902;2022-12-10T08:43:52;-0.10;99.90
20654;DHT22;21083;50.898;4.902;2022-12-10T08:46:19;-0.30;99.90
20654;DHT22;21083;50.898;4.902;2022-12-10T08:48:46;-0.30;99.90
20654;DHT22;21083;50.898;4.902;2022-12-10T08:51:15;-0.20;99.90
20654;DHT22;21083;50.898;4.902;2022-12-10T08:53:43;-0.10;99.90
20654;DHT22;21083;50.898;4.902;2022-12-10T08:56:11;-0.10;99.90
20654;DHT22;21083;50.898;4.902;2022-12-10T08:58:38;-0.10;99.90
20654;DHT22;21083;50.898;4.902;2022-12-10T09:01:06;0.00;99.90
20654;DHT22;21083;50.898;4.902;2022-12-10T09:03:34;0.00;99.90
20654;DHT22;21083;50.898;4.902;2022-12-10T09:06:05;0.10;99.90
20654;DHT22;21083;50.898;4.902;2022-12-10T09:08:32;0.20;99.90
20654;DHT22;21083;50.898;4.902;2022-12-10T09:11:05;0.20;99.90
20654;DHT22;21083;50.898;4.902;2022-12-10T09:13:32;0.10;99.90
20654;DHT22;21083;50.898;4.902;2022-12-10T09:15:59;0.00;99.90
20654;DHT22;21083;50.898;4.902;2022-12-10T09:18:26;0.10;99.90
20654;DHT22;21083;50.898;4.902;2022-12-10T09:20:53;0.10;99.90
20654;DHT22;21083;50.898;4.902;2022-12-10T09:23:20;0.10;99.90
20654;DHT22;21083;50.898;4.902;2022-12-10T09:25:47;0.20;99.90
20654;DHT22;21083;50.898;4.902;2022-12-10T09:28:16;0.30;99.90
20654;DHT22;21083;50.898;4.902;2022-12-10T09:30:43;0.30;99.90
20654;DHT22;21083;50.898;4.902;2022-12-10T09:33:10;0.30;99.90
20654;DHT22;21083;50.898;4.902;2022-12-10T09:35:40;0.10;99.90
20654;DHT22;21083;50.898;4.902;2022-12-10T09:38:07;0.30;99.90
20654;DHT22;21083;50.898;4.902;2022-12-10T09:40:39;0.30;99.90
20654;DHT22;21083;50.898;4.902;2022-12-10T09:43:14;0.40;99.90
20654;DHT22;21083;50.898;4.902;2022-12-10T09:45:51;0.30;99.90
20654;DHT22;21083;50.898;4.902;2022-12-10T09:48:25;0.20;99.90
20654;DHT22;21083;50.898;4.902;2022-12-10T09:51:01;0.00;99.90
20654;DHT22;21083;50.898;4.902;2022-12-10T09:53:30;0.10;99.90
20654;DHT22;21083;50.898;4.902;2022-12-10T09:55:58;0.10;99.90
20654;DHT22;21083;50.898;4.902;2022-12-10T09:58:26;0.10;99.90
20654;DHT22;21083;50.898;4.902;2022-12-10T10:00:57;0.10;99.90
20654;DHT22;21083;50.898;4.902;2022-12-10T10:03:24;0.00;99.90
20654;DHT22;21083;50.898;4.902;2022-12-10T10:05:53;0.10;99.90
20654;DHT22;21083;50.898;4.902;2022-12-10T10:08:26;0.30;99.90
20654;DHT22;21083;50.898;4.902;2022-12-10T10:10:53;0.30;99.90
20654;DHT22;21083;50.898;4.902;2022-12-10T10:13:28;0.40;99.90
20654;DHT22;21083;50.898;4.902;2022-12-10T10:16:10;0.30;99.90
20654;DHT22;21083;50.898;4.902;2022-12-10T10:18:41;0.20;99.90
20654;DHT22;21083;50.898;4.902;2022-12-10T10:21:15;0.30;99.90
20654;DHT22;21083;50.898;4.902;2022-12-10T10:23:45;0.30;99.90
20654;DHT22;21083;50.898;4.902;2022-12-10T10:26:12;0.30;99.90
20654;DHT22;21083;50.898;4.902;2022-12-10T10:28:40;0.30;99.90
20654;DHT22;21083;50.898;4.902;2022-12-10T10:31:17;0.40;99.90
20654;DHT22;21083;50.898;4.902;2022-12-10T10:33:48;0.50;99.90
20654;DHT22;21083;50.898;4.902;2022-12-10T10:36:16;0.50;99.90
20654;DHT22;21083;50.898;4.902;2022-12-10T10:38:47;0.40;99.90
20654;DHT22;21083;50.898;4.902;2022-12-10T10:41:14;0.50;99.90
20654;DHT22;21083;50.898;4.902;2022-12-10T10:43:42;0.40;99.90
20654;DHT22;21083;50.898;4.902;2022-12-10T10:46:14;0.30;99.90
20654;DHT22;21083;50.898;4.902;2022-12-10T10:48:41;0.10;99.90
20654;DHT22;21083;50.898;4.902;2022-12-10T10:51:16;0.20;99.90
20654;DHT22;21083;50.898;4.902;2022-12-10T10:53:47;0.00;99.90
20654;DHT22;21083;50.898;4.902;2022-12-10T10:56:17;0.10;99.90
20654;DHT22;21083;50.898;4.902;2022-12-10T10:58:51;0.10;99.90
20654;DHT22;21083;50.898;4.902;2022-12-10T11:01:22;-0.10;99.90
20654;DHT22;21083;50.898;4.902;2022-12-10T11:03:54;0.20;99.90
20654;DHT22;21083;50.898;4.902;2022-12-10T11:06:22;0.20;99.90
20654;DHT22;21083;50.898;4.902;2022-12-10T11:08:57;0.10;99.90
20654;DHT22;21083;50.898;4.902;2022-12-10T11:11:32;0.20;99.90
20654;DHT22;21083;50.898;4.902;2022-12-10T11:14:22;0.20;99.90
20654;DHT22;21083;50.898;4.902;2022-12-10T11:16:59;0.10;99.90
20654;DHT22;21083;50.898;4.902;2022-12-10T11:19:27;0.30;99.90
20654;DHT22;21083;50.898;4.902;2022-12-10T11:21:53;0.40;99.90
20654;DHT22;21083;50.898;4.902;2022-12-10T11:24:20;0.40;99.90
20654;DHT22;21083;50.898;4.902;2022-12-10T11:26:58;0.30;99.90
20654;DHT22;21083;50.898;4.902;2022-12-10T11:29:40;0.20;99.90
20654;DHT22;21083;50.898;4.902;2022-12-10T11:32:33;0.10;99.90
20654;DHT22;21083;50.898;4.902;2022-12-10T11:35:10;0.10;99.90
20654;DHT22;21083;50.898;4.902;2022-12-10T11:37:40;0.20;99.90
20654;DHT22;21083;50.898;4.902;2022-12-10T11:40:28;0.30;99.90
20654;DHT22;21083;50.898;4.902;2022-12-10T11:43:09;0.50;99.90
20654;DHT22;21083;50.898;4.902;2022-12-10T11:45:51;0.50;99.90
20654;DHT22;21083;50.898;4.902;2022-12-10T11:48:33;0.60;99.90
20654;DHT22;21083;50.898;4.902;2022-12-10T11:51:05;0.70;99.90
20654;DHT22;21083;50.898;4.902;2022-12-10T11:56:43;1.00;99.90
20654;DHT22;21083;50.898;4.902;2022-12-10T11:59:25;0.90;99.90
20654;DHT22;21083;50.898;4.902;2022-12-10T12:02:03;0.80;99.90
20654;DHT22;21083;50.898;4.902;2022-12-10T12:04:47;0.80;99.90
20654;DHT22;21083;50.898;4.902;2022-12-10T12:07:32;0.90;99.90
20654;DHT22;21083;50.898;4.902;2022-12-10T12:10:26;0.90;99.90
20654;DHT22;21083;50.898;4.902;2022-12-10T12:12:59;0.90;99.90
20654;DHT22;21083;50.898;4.902;2022-12-10T12:15:30;0.90;99.90
20654;DHT22;21083;50.898;4.902;2022-12-10T12:18:01;1.00;99.90
20654;DHT22;21083;50.898;4.902;2022-12-10T12:20:32;1.00;99.90
20654;DHT22;21083;50.898;4.902;2022-12-10T12:23:07;1.10;99.90
20654;DHT22;21083;50.898;4.902;2022-12-10T12:25:44;1.20;99.90
20654;DHT22;21083;50.898;4.902;2022-12-10T12:28:15;1.20;99.90
20654;DHT22;21083;50.898;4.902;2022-12-10T12:30:49;1.20;99.90
20654;DHT22;21083;50.898;4.902;2022-12-10T12:33:26;1.20;99.90
20654;DHT22;21083;50.898;4.902;2022-12-10T12:35:59;1.30;99.90
20654;DHT22;21083;50.898;4.902;2022-12-10T12:38:29;1.20;99.90
20654;DHT22;21083;50.898;4.902;2022-12-10T12:40:59;1.00;99.90
20654;DHT22;21083;50.898;4.902;2022-12-10T12:43:37;0.90;99.90
20654;DHT22;21083;50.898;4.902;2022-12-10T12:46:12;1.00;99.90
20654;DHT22;21083;50.898;4.902;2022-12-10T12:48:46;0.90;99.90
20654;DHT22;21083;50.898;4.902;2022-12-10T12:51:21;1.00;99.90
20654;DHT22;21083;50.898;4.902;2022-12-10T12:53:50;0.90;99.90
20654;DHT22;21083;50.898;4.902;2022-12-10T12:56:23;0.90;99.90
20654;DHT22;21083;50.898;4.902;2022-12-10T12:59:01;0.90;99.90
20654;DHT22;21083;50.898;4.902;2022-12-10T13:01:33;0.70;99.90
20654;DHT22;21083;50.898;4.902;2022-12-10T13:04:02;0.80;99.90
20654;DHT22;21083;50.898;4.902;2022-12-10T13:06:32;0.80;99.90
20654;DHT22;21083;50.898;4.902;2022-12-10T13:09:17;0.90;99.90
20654;DHT22;21083;50.898;4.902;2022-12-10T13:12:18;1.10;99.90
20654;DHT22;21083;50.898;4.902;2022-12-10T13:15:11;1.10;99.90
20654;DHT22;21083;50.898;4.902;2022-12-10T13:18:01;1.10;99.90
20654;DHT22;21083;50.898;4.902;2022-12-10T13:20:31;1.10;99.90
20654;DHT22;21083;50.898;4.902;2022-12-10T13:23:00;1.00;99.90
20654;DHT22;21083;50.898;4.902;2022-12-10T13:25:42;1.00;99.90
20654;DHT22;21083;50.898;4.902;2022-12-10T13:28:27;1.10;99.90
20654;DHT22;21083;50.898;4.902;2022-12-10T13:31:18;1.20;99.90
20654;DHT22;21083;50.898;4.902;2022-12-10T13:33:52;1.20;99.90
20654;DHT22;21083;50.898;4.902;2022-12-10T13:36:26;1.30;99.90
20654;DHT22;21083;50.898;4.902;2022-12-10T13:39:11;1.40;99.90
20654;DHT22;21083;50.898;4.902;2022-12-10T13:41:41;1.30;99.90
20654;DHT22;21083;50.898;4.902;2022-12-10T13:44:35;1.40;99.90
20654;DHT22;21083;50.898;4.902;2022-12-10T13:47:05;1.40;99.90
20654;DHT22;21083;50.898;4.902;2022-12-10T13:49:51;1.10;99.90
20654;DHT22;21083;50.898;4.902;2022-12-10T13:52:23;1.10;99.90
20654;DHT22;21083;50.898;4.902;2022-12-10T13:55:15;1.20;99.90
20654;DHT22;21083;50.898;4.902;2022-12-10T14:00:51;1.40;99.90
20654;DHT22;21083;50.898;4.902;2022-12-10T14:06:16;1.40;99.90
20654;DHT22;21083;50.898;4.902;2022-12-10T14:08:55;1.40;99.90
20654;DHT22;21083;50.898;4.902;2022-12-10T14:11:28;1.10;99.90
20654;DHT22;21083;50.898;4.902;2022-12-10T14:13:57;0.90;99.90
20654;DHT22;21083;50.898;4.902;2022-12-10T14:16:27;1.00;99.90
20654;DHT22;21083;50.898;4.902;2022-12-10T14:18:57;1.00;99.90
20654;DHT22;21083;50.898;4.902;2022-12-10T14:21:25;1.10;99.90
20654;DHT22;21083;50.898;4.902;2022-12-10T14:23:53;1.20;99.90
20654;DHT22;21083;50.898;4.902;2022-12-10T14:26:25;1.30;99.90
20654;DHT22;21083;50.898;4.902;2022-12-10T14:28:56;1.20;99.90
20654;DHT22;21083;50.898;4.902;2022-12-10T14:31:27;1.20;99.90
20654;DHT22;21083;50.898;4.902;2022-12-10T14:33:59;1.20;99.90
20654;DHT22;21083;50.898;4.902;2022-12-10T14:36:28;1.20;99.90
20654;DHT22;21083;50.898;4.902;2022-12-10T14:38:56;1.30;99.90
20654;DHT22;21083;50.898;4.902;2022-12-10T14:41:24;1.30;99.90
20654;DHT22;21083;50.898;4.902;2022-12-10T14:43:54;1.50;99.90
20654;DHT22;21083;50.898;4.902;2022-12-10T14:46:25;1.50;99.90
20654;DHT22;21083;50.898;4.902;2022-12-10T14:48:54;1.60;99.90
20654;DHT22;21083;50.898;4.902;2022-12-10T14:51:23;1.50;99.90
20654;DHT22;21083;50.898;4.902;2022-12-10T14:53:52;1.50;99.90
20654;DHT22;21083;50.898;4.902;2022-12-10T14:56:24;1.50;99.90
20654;DHT22;21083;50.898;4.902;2022-12-10T14:58:57;1.30;99.90
20654;DHT22;21083;50.898;4.902;2022-12-10T15:01:30;1.30;99.90
20654;DHT22;21083;50.898;4.902;2022-12-10T15:03:59;1.10;99.90
20654;DHT22;21083;50.898;4.902;2022-12-10T15:06:27;1.20;99.90
20654;DHT22;21083;50.898;4.902;2022-12-10T15:08:56;1.20;99.90
20654;DHT22;21083;50.898;4.902;2022-12-10T15:11:26;1.20;99.90
20654;DHT22;21083;50.898;4.902;2022-12-10T15:13:58;1.20;99.90
20654;DHT22;21083;50.898;4.902;2022-12-10T15:16:31;1.20;99.90
20654;DHT22;21083;50.898;4.902;2022-12-10T15:19:20;1.20;99.90
20654;DHT22;21083;50.898;4.902;2022-12-10T15:21:48;0.90;99.90
20654;DHT22;21083;50.898;4.902;2022-12-10T15:24:19;0.80;99.90
20654;DHT22;21083;50.898;4.902;2022-12-10T15:26:47;0.80;99.90
20654;DHT22;21083;50.898;4.902;2022-12-10T15:29:33;0.80;99.90
20654;DHT22;21083;50.898;4.902;2022-12-10T15:32:04;0.90;99.90
20654;DHT22;21083;50.898;4.902;2022-12-10T15:34:37;1.00;99.90
20654;DHT22;21083;50.898;4.902;2022-12-10T15:37:05;1.00;99.90
20654;DHT22;21083;50.898;4.902;2022-12-10T15:39:45;0.90;99.90
20654;DHT22;21083;50.898;4.902;2022-12-10T15:42:36;1.00;99.90
20654;DHT22;21083;50.898;4.902;2022-12-10T15:45:15;1.10;99.90
20654;DHT22;21083;50.898;4.902;2022-12-10T15:47:43;1.10;99.90
20654;DHT22;21083;50.898;4.902;2022-12-10T15:50:10;1.10;99.90
20654;DHT22;21083;50.898;4.902;2022-12-10T15:52:37;1.00;99.90
20654;DHT22;21083;50.898;4.902;2022-12-10T15:55:05;1.00;99.90
20654;DHT22;21083;50.898;4.902;2022-12-10T15:57:34;1.00;99.90
20654;DHT22;21083;50.898;4.902;2022-12-10T16:00:06;0.90;99.90
20654;DHT22;21083;50.898;4.902;2022-12-10T16:02:37;0.90;99.90
20654;DHT22;21083;50.898;4.902;2022-12-10T16:05:11;1.00;99.90
20654;DHT22;21083;50.898;4.902;2022-12-10T16:07:39;0.90;99.90
20654;DHT22;21083;50.898;4.902;2022-12-10T16:10:06;1.00;99.90
20654;DHT22;21083;50.898;4.902;2022-12-10T16:12:35;0.90;99.90
20654;DHT22;21083;50.898;4.902;2022-12-10T16:15:05;1.10;99.90